Time;durP1;ratioP1;P1;durP2;ratioP2;P2;SDS_P1;SDS_P2;PMS_P1;PMS_P2;Temp;Humidity;BMP_temperature;BMP_pressure;BME280_temperature;BME280_humidity;BME280_pressure;Samples;Min_cycle;Max_cycle;Signal;HPM_P1;HPM_P2
2022/01/31 00:00:03;;;;;;;22.57;9.87;;;;;;;;;;5118530;27;20220;-82
2022/01/31 00:02:30;;;;;;;22.20;9.93;;;;;;;;;;5126173;27;20231;-81
2022/01/31 00:04:57;;;;;;;22.40;10.27;;;;;;;;;;5115117;27;20233;-82
2022/01/31 00:07:24;;;;;;;23.07;9.37;;;;;;;;;;5116461;27;20685;-81
2022/01/31 00:09:53;;;;;;;23.73;8.97;;;;;;;;;;5123208;27;20652;-82
2022/01/31 00:12:22;;;;;;;26.23;9.43;;;;;;;;;;5128402;27;20232;-82
2022/01/31 00:14:50;;;;;;;24.07;8.50;;;;;;;;;;5134325;27;20664;-81
2022/01/31 00:17:18;;;;;;;20.03;7.80;;;;;;;;;;5130193;27;20196;-82
2022/01/31 00:19:46;;;;;;;22.03;8.63;;;;;;;;;;5125219;27;20229;-82
2022/01/31 00:22:15;;;;;;;25.67;9.03;;;;;;;;;;5133593;27;20225;-82
2022/01/31 00:24:42;;;;;;;23.93;8.47;;;;;;;;;;5115089;28;20740;-82
2022/01/31 00:27:10;;;;;;;23.97;8.57;;;;;;;;;;5121649;27;20288;-81
2022/01/31 00:29:38;;;;;;;24.00;8.80;;;;;;;;;;5123470;27;20306;-82
2022/01/31 00:32:05;;;;;;;18.77;9.30;;;;;;;;;;5115263;27;20572;-82
2022/01/31 00:34:32;;;;;;;21.70;8.80;;;;;;;;;;5122141;27;20285;-82
2022/01/31 00:37:00;;;;;;;24.50;8.43;;;;;;;;;;5117262;27;20192;-82
2022/01/31 00:39:27;;;;;;;26.47;9.07;;;;;;;;;;5118850;27;20228;-82
2022/01/31 00:41:55;;;;;;;26.13;9.33;;;;;;;;;;5130482;27;20319;-82
2022/01/31 00:44:27;;;;;;;20.63;8.33;;;;;;;;;;5127495;27;20311;-81
2022/01/31 00:46:59;;;;;;;24.63;8.73;;;;;;;;;;5132920;27;20234;-82
2022/01/31 00:49:36;;;;;;;21.33;8.00;;;;;;;;;;5115294;27;20213;-82
2022/01/31 00:52:04;;;;;;;24.10;8.37;;;;;;;;;;5124111;27;20220;-82
2022/01/31 00:54:31;;;;;;;20.67;8.10;;;;;;;;;;5107656;27;20237;-81
2022/01/31 00:56:58;;;;;;;22.03;9.10;;;;;;;;;;5105878;28;20189;-81
2022/01/31 00:59:27;;;;;;;27.10;10.30;;;;;;;;;;5106785;28;20289;-82
2022/01/31 01:01:54;;;;;;;21.30;9.50;;;;;;;;;;5097077;28;20297;-81
2022/01/31 01:04:21;;;;;;;23.70;9.77;;;;;;;;;;5097426;28;20222;-81
2022/01/31 01:06:49;;;;;;;27.57;11.00;;;;;;;;;;5105608;28;20298;-81
2022/01/31 01:09:16;;;;;;;25.63;10.77;;;;;;;;;;5104473;28;20292;-81
2022/01/31 01:11:43;;;;;;;19.47;9.20;;;;;;;;;;5101195;28;20218;-81
2022/01/31 01:14:10;;;;;;;18.03;8.13;;;;;;;;;;5103575;28;20283;-81
2022/01/31 01:16:39;;;;;;;19.07;7.93;;;;;;;;;;5099700;28;20320;-81
2022/01/31 01:19:06;;;;;;;17.53;8.17;;;;;;;;;;5099697;28;20285;-81
2022/01/31 01:21:34;;;;;;;18.37;7.93;;;;;;;;;;5103706;28;20285;-81
2022/01/31 01:24:01;;;;;;;23.17;8.47;;;;;;;;;;5101620;28;20233;-82
2022/01/31 01:26:28;;;;;;;21.87;8.50;;;;;;;;;;5100098;28;20214;-81
2022/01/31 01:28:56;;;;;;;23.67;8.10;;;;;;;;;;5104387;28;20217;-81
2022/01/31 01:31:23;;;;;;;22.87;7.50;;;;;;;;;;5097970;28;20340;-82
2022/01/31 01:33:52;;;;;;;16.23;7.50;;;;;;;;;;5096517;28;20226;-81
2022/01/31 01:36:20;;;;;;;20.97;7.77;;;;;;;;;;5100177;28;20202;-81
2022/01/31 01:38:47;;;;;;;15.30;7.50;;;;;;;;;;5092633;28;20682;-81
2022/01/31 01:41:15;;;;;;;22.67;7.77;;;;;;;;;;5106236;28;20223;-81
2022/01/31 01:43:42;;;;;;;23.47;7.83;;;;;;;;;;5112067;28;20249;-82
2022/01/31 01:46:09;;;;;;;24.87;7.90;;;;;;;;;;5109888;28;20225;-82
2022/01/31 01:48:37;;;;;;;21.57;7.57;;;;;;;;;;5093217;28;20198;-82
2022/01/31 01:51:06;;;;;;;19.77;6.97;;;;;;;;;;5093375;28;20254;-81
2022/01/31 01:53:34;;;;;;;22.20;7.07;;;;;;;;;;5092827;28;20236;-82
2022/01/31 01:56:01;;;;;;;20.30;6.97;;;;;;;;;;5107904;28;20201;-82
2022/01/31 01:58:37;;;;;;;16.63;6.73;;;;;;;;;;5112392;28;20242;-82
2022/01/31 02:01:05;;;;;;;18.23;6.90;;;;;;;;;;5113729;28;20227;-82
2022/01/31 02:03:33;;;;;;;16.93;7.07;;;;;;;;;;5113503;28;20228;-82
2022/01/31 02:06:00;;;;;;;18.50;6.63;;;;;;;;;;5113165;28;20216;-82
2022/01/31 02:08:38;;;;;;;16.47;6.97;;;;;;;;;;5097523;28;20239;-82
2022/01/31 02:11:06;;;;;;;23.97;7.37;;;;;;;;;;5096690;28;20641;-82
2022/01/31 02:13:33;;;;;;;16.87;7.50;;;;;;;;;;5099532;28;20636;-82
2022/01/31 02:16:00;;;;;;;14.80;7.17;;;;;;;;;;5111748;28;20280;-80
2022/01/31 02:18:29;;;;;;;17.97;7.73;;;;;;;;;;5100268;28;20678;-80
2022/01/31 02:20:58;;;;;;;14.83;6.50;;;;;;;;;;5093010;28;20507;-81
2022/01/31 02:23:25;;;;;;;15.90;6.40;;;;;;;;;;5106277;28;20254;-80
2022/01/31 02:25:54;;;;;;;17.07;6.60;;;;;;;;;;5100029;28;20246;-80
2022/01/31 02:28:22;;;;;;;13.50;5.77;;;;;;;;;;5072349;28;20282;-80
2022/01/31 02:30:49;;;;;;;12.30;5.90;;;;;;;;;;5072522;28;20728;-81
2022/01/31 02:33:18;;;;;;;14.67;6.00;;;;;;;;;;5081792;28;20286;-82
2022/01/31 02:35:46;;;;;;;18.10;6.47;;;;;;;;;;5093282;28;20198;-81
2022/01/31 02:38:14;;;;;;;12.23;6.10;;;;;;;;;;5100531;28;20216;-81
2022/01/31 02:40:42;;;;;;;12.83;5.83;;;;;;;;;;5103133;28;20194;-81
2022/01/31 02:43:10;;;;;;;13.57;6.00;;;;;;;;;;5103274;28;20214;-82
2022/01/31 02:45:37;;;;;;;10.90;5.33;;;;;;;;;;5097683;28;20202;-81
2022/01/31 02:48:05;;;;;;;12.13;5.77;;;;;;;;;;5099591;28;20194;-81
2022/01/31 02:50:32;;;;;;;11.47;5.23;;;;;;;;;;5101093;28;20210;-81
2022/01/31 02:53:11;;;;;;;14.53;5.90;;;;;;;;;;5104843;28;20633;-81
2022/01/31 02:55:40;;;;;;;14.50;5.90;;;;;;;;;;5104517;27;20225;-81
2022/01/31 02:58:07;;;;;;;15.27;5.43;;;;;;;;;;5112494;28;20279;-81
2022/01/31 03:00:35;;;;;;;11.93;5.03;;;;;;;;;;5125510;27;20687;-82
2022/01/31 03:03:04;;;;;;;13.73;6.13;;;;;;;;;;5118399;27;20197;-81
2022/01/31 03:05:31;;;;;;;13.77;5.47;;;;;;;;;;5112272;27;20244;-82
2022/01/31 03:07:59;;;;;;;14.43;5.13;;;;;;;;;;5117673;27;20220;-82
2022/01/31 03:10:26;;;;;;;11.83;5.30;;;;;;;;;;5132617;27;20316;-81
2022/01/31 03:12:55;;;;;;;12.20;5.40;;;;;;;;;;5132383;27;20233;-81
2022/01/31 03:15:22;;;;;;;11.87;5.47;;;;;;;;;;5117091;27;20289;-82
2022/01/31 03:17:51;;;;;;;13.43;5.63;;;;;;;;;;5129893;27;20216;-81
2022/01/31 03:20:19;;;;;;;10.07;4.77;;;;;;;;;;5132422;27;20197;-81
2022/01/31 03:22:47;;;;;;;12.70;5.00;;;;;;;;;;5132711;27;20284;-81
2022/01/31 03:25:14;;;;;;;8.90;4.80;;;;;;;;;;5128959;27;20200;-81
2022/01/31 03:27:42;;;;;;;12.13;4.77;;;;;;;;;;5130189;27;20580;-81
2022/01/31 03:30:13;;;;;;;9.27;4.90;;;;;;;;;;5121244;27;20288;-81
2022/01/31 03:32:40;;;;;;;10.27;4.07;;;;;;;;;;5132719;27;20288;-81
2022/01/31 03:35:08;;;;;;;8.80;3.67;;;;;;;;;;5116404;28;20298;-82
2022/01/31 03:37:35;;;;;;;10.03;4.27;;;;;;;;;;5112255;28;20201;-81
2022/01/31 03:40:03;;;;;;;7.67;4.03;;;;;;;;;;5111910;28;20233;-81
2022/01/31 03:42:30;;;;;;;9.50;4.07;;;;;;;;;;5125742;27;20304;-81
2022/01/31 03:44:57;;;;;;;8.23;4.53;;;;;;;;;;5128970;27;20654;-81
2022/01/31 03:47:26;;;;;;;6.10;3.70;;;;;;;;;;5114321;28;20197;-81
2022/01/31 03:49:53;;;;;;;7.93;3.60;;;;;;;;;;5116134;28;20284;-81
2022/01/31 03:52:21;;;;;;;7.97;3.50;;;;;;;;;;5130745;28;20251;-81
2022/01/31 03:54:48;;;;;;;10.87;4.37;;;;;;;;;;5126860;28;20226;-81
2022/01/31 03:57:15;;;;;;;9.67;3.80;;;;;;;;;;5122403;28;20684;-81
2022/01/31 03:59:43;;;;;;;8.83;4.00;;;;;;;;;;5127280;28;20227;-81
2022/01/31 04:02:10;;;;;;;9.10;3.90;;;;;;;;;;5115927;28;20629;-82
2022/01/31 04:04:39;;;;;;;8.50;3.87;;;;;;;;;;5111510;28;20281;-82
2022/01/31 04:07:06;;;;;;;8.53;3.73;;;;;;;;;;5111038;28;20228;-81
2022/01/31 04:09:33;;;;;;;8.33;3.43;;;;;;;;;;5111112;28;20241;-81
2022/01/31 04:12:00;;;;;;;8.90;3.50;;;;;;;;;;5130241;28;20668;-81
2022/01/31 04:14:28;;;;;;;8.73;3.40;;;;;;;;;;5131482;28;20237;-81
2022/01/31 04:16:56;;;;;;;6.67;3.57;;;;;;;;;;5111741;28;20276;-81
2022/01/31 04:19:23;;;;;;;7.33;3.43;;;;;;;;;;5111669;28;20198;-81
2022/01/31 04:21:52;;;;;;;8.90;3.17;;;;;;;;;;5111552;28;20247;-81
2022/01/31 04:24:23;;;;;;;5.80;2.93;;;;;;;;;;5122071;28;20224;-82
2022/01/31 04:26:59;;;;;;;4.97;3.10;;;;;;;;;;5113531;28;20665;-81
2022/01/31 04:29:29;;;;;;;6.73;2.90;;;;;;;;;;5130842;28;20205;-81
2022/01/31 04:31:56;;;;;;;8.93;3.10;;;;;;;;;;5131571;28;20212;-81
2022/01/31 04:34:24;;;;;;;9.40;2.70;;;;;;;;;;5115698;28;20633;-81
2022/01/31 04:36:52;;;;;;;8.50;2.60;;;;;;;;;;5114538;28;20280;-81
2022/01/31 04:39:20;;;;;;;8.47;2.33;;;;;;;;;;5115666;28;20280;-81
2022/01/31 04:41:48;;;;;;;10.07;2.00;;;;;;;;;;5114795;28;20228;-81
2022/01/31 04:44:15;;;;;;;8.27;2.00;;;;;;;;;;5122479;27;20198;-81
2022/01/31 04:46:45;;;;;;;12.37;2.33;;;;;;;;;;5135237;27;20283;-81
2022/01/31 04:49:12;;;;;;;10.60;2.10;;;;;;;;;;5135549;27;20197;-81
2022/01/31 04:51:39;;;;;;;13.10;1.90;;;;;;;;;;5130978;27;20298;-81
2022/01/31 04:54:08;;;;;;;13.50;2.13;;;;;;;;;;5133545;27;20311;-81
2022/01/31 04:56:36;;;;;;;18.60;2.40;;;;;;;;;;5135302;27;20291;-80
2022/01/31 04:59:03;;;;;;;12.90;2.10;;;;;;;;;;5121083;27;20201;-81
2022/01/31 05:01:31;;;;;;;14.27;1.83;;;;;;;;;;5135432;27;20193;-81
2022/01/31 05:03:58;;;;;;;14.50;2.20;;;;;;;;;;5123373;27;20366;-81
2022/01/31 05:06:31;;;;;;;11.70;2.60;;;;;;;;;;5129202;27;20247;-81
2022/01/31 05:08:59;;;;;;;16.47;1.83;;;;;;;;;;5094341;28;20212;-81
2022/01/31 05:11:27;;;;;;;17.50;1.93;;;;;;;;;;5107536;27;20217;-80
2022/01/31 05:13:55;;;;;;;14.63;2.37;;;;;;;;;;5134436;27;20225;-80
2022/01/31 05:16:22;;;;;;;16.40;2.97;;;;;;;;;;5135083;27;20300;-81
2022/01/31 05:18:50;;;;;;;15.77;2.33;;;;;;;;;;5135013;27;20243;-81
2022/01/31 05:21:17;;;;;;;12.37;1.93;;;;;;;;;;5134744;27;20244;-81
2022/01/31 05:23:46;;;;;;;18.67;2.80;;;;;;;;;;5126934;27;20221;-81
2022/01/31 05:26:14;;;;;;;13.37;2.23;;;;;;;;;;5125993;27;20205;-81
2022/01/31 05:28:42;;;;;;;17.53;2.40;;;;;;;;;;5133568;27;20279;-81
2022/01/31 05:31:09;;;;;;;13.57;2.20;;;;;;;;;;5134516;27;20252;-80
2022/01/31 05:33:36;;;;;;;12.50;2.10;;;;;;;;;;5133805;27;20370;-80
2022/01/31 05:36:04;;;;;;;12.93;2.07;;;;;;;;;;5135099;27;20280;-80
2022/01/31 05:38:34;;;;;;;12.20;2.13;;;;;;;;;;5134840;27;20570;-80
2022/01/31 05:41:05;;;;;;;18.60;2.93;;;;;;;;;;5134325;27;20242;-81
2022/01/31 05:43:32;;;;;;;12.60;2.57;;;;;;;;;;5133460;27;20224;-80
2022/01/31 05:46:01;;;;;;;14.00;2.57;;;;;;;;;;5134785;27;20288;-81
2022/01/31 05:48:28;;;;;;;18.60;2.60;;;;;;;;;;5126350;27;20277;-80
2022/01/31 05:50:56;;;;;;;17.47;2.03;;;;;;;;;;5121546;27;20232;-80
2022/01/31 05:53:23;;;;;;;11.37;1.80;;;;;;;;;;5123369;27;20289;-80
2022/01/31 05:55:50;;;;;;;10.67;1.70;;;;;;;;;;5133548;27;20197;-81
2022/01/31 05:58:17;;;;;;;8.40;2.10;;;;;;;;;;5127100;27;20233;-81
2022/01/31 06:00:44;;;;;;;13.40;2.47;;;;;;;;;;5118848;27;20224;-81
2022/01/31 06:03:13;;;;;;;7.57;1.60;;;;;;;;;;5125706;27;20243;-80
2022/01/31 06:05:40;;;;;;;11.43;2.27;;;;;;;;;;5113960;28;20201;-80
2022/01/31 06:08:08;;;;;;;16.13;2.60;;;;;;;;;;5113511;28;20280;-80
2022/01/31 06:10:42;;;;;;;10.70;1.63;;;;;;;;;;5121509;27;20228;-81
2022/01/31 06:13:09;;;;;;;11.70;2.10;;;;;;;;;;5120033;27;20241;-84
2022/01/31 06:15:36;;;;;;;11.37;1.77;;;;;;;;;;5113593;28;20605;-84
2022/01/31 06:18:03;;;;;;;8.70;2.33;;;;;;;;;;5114019;28;20280;-85
2022/01/31 06:20:32;;;;;;;13.60;1.97;;;;;;;;;;5113503;28;20233;-85
2022/01/31 06:23:00;;;;;;;14.80;2.30;;;;;;;;;;5124914;27;20284;-82
2022/01/31 06:25:27;;;;;;;14.20;2.00;;;;;;;;;;5133703;27;20228;-85
2022/01/31 06:27:54;;;;;;;13.87;2.20;;;;;;;;;;5135517;27;20197;-86
2022/01/31 06:30:21;;;;;;;12.90;2.37;;;;;;;;;;5132994;27;20224;-87
2022/01/31 06:32:48;;;;;;;11.73;1.93;;;;;;;;;;5133841;27;20312;-86
2022/01/31 06:35:17;;;;;;;12.37;2.47;;;;;;;;;;5132046;27;20225;-85
2022/01/31 06:37:46;;;;;;;12.23;2.07;;;;;;;;;;5141689;27;20208;-89
2022/01/31 06:40:13;;;;;;;13.80;3.20;;;;;;;;;;5114755;27;20209;-84
2022/01/31 06:42:40;;;;;;;11.43;1.87;;;;;;;;;;5118944;27;20299;-83
2022/01/31 06:45:08;;;;;;;13.17;1.97;;;;;;;;;;5130478;27;21283;-80
2022/01/31 06:47:35;;;;;;;12.87;2.60;;;;;;;;;;5128585;27;20240;-82
2022/01/31 06:50:04;;;;;;;13.37;1.90;;;;;;;;;;5112788;28;20293;-81
2022/01/31 06:52:34;;;;;;;14.23;2.70;;;;;;;;;;5114855;27;20316;-82
2022/01/31 06:55:05;;;;;;;13.27;2.40;;;;;;;;;;5128134;27;20719;-82
2022/01/31 06:57:33;;;;;;;12.93;2.00;;;;;;;;;;5110094;28;20356;-83
2022/01/31 07:00:01;;;;;;;10.63;2.00;;;;;;;;;;5113553;27;20206;-82
2022/01/31 07:02:30;;;;;;;11.27;2.13;;;;;;;;;;5108454;27;20681;-82
2022/01/31 07:04:57;;;;;;;10.37;1.90;;;;;;;;;;5112362;27;20235;-83
2022/01/31 07:07:24;;;;;;;12.87;2.03;;;;;;;;;;5117318;27;20741;-83
2022/01/31 07:09:51;;;;;;;15.30;2.73;;;;;;;;;;5131416;27;20235;-83
2022/01/31 07:12:24;;;;;;;11.30;2.17;;;;;;;;;;5129236;27;20255;-83
2022/01/31 07:14:51;;;;;;;11.90;2.20;;;;;;;;;;5127267;27;20250;-83
2022/01/31 07:17:18;;;;;;;11.93;1.90;;;;;;;;;;5129709;27;20604;-83
2022/01/31 07:19:45;;;;;;;15.07;2.70;;;;;;;;;;5132385;27;20204;-83
2022/01/31 07:22:14;;;;;;;13.03;2.60;;;;;;;;;;5130685;27;20305;-83
2022/01/31 07:24:48;;;;;;;11.63;2.23;;;;;;;;;;5121106;27;20670;-82
2022/01/31 07:27:15;;;;;;;11.37;2.17;;;;;;;;;;5112173;27;20670;-83
2022/01/31 07:29:45;;;;;;;8.40;1.90;;;;;;;;;;5112346;28;20284;-83
2022/01/31 07:32:13;;;;;;;12.30;2.27;;;;;;;;;;5112016;28;20260;-83
2022/01/31 07:34:41;;;;;;;12.47;2.33;;;;;;;;;;5112107;28;20239;-83
2022/01/31 07:37:10;;;;;;;12.87;2.50;;;;;;;;;;5111834;28;20745;-83
2022/01/31 07:39:39;;;;;;;9.70;2.30;;;;;;;;;;5115578;27;20272;-83
2022/01/31 07:42:07;;;;;;;10.93;2.03;;;;;;;;;;5117495;27;20291;-84
2022/01/31 07:44:34;;;;;;;11.53;2.30;;;;;;;;;;5125569;27;20280;-84
2022/01/31 07:47:03;;;;;;;12.80;2.60;;;;;;;;;;5125771;27;20747;-83
2022/01/31 07:49:30;;;;;;;13.63;2.63;;;;;;;;;;5130429;28;20224;-83
2022/01/31 07:51:58;;;;;;;14.57;2.77;;;;;;;;;;5131517;28;20304;-82
2022/01/31 07:54:26;;;;;;;15.60;3.10;;;;;;;;;;5132224;28;20232;-82
2022/01/31 07:56:53;;;;;;;16.33;2.80;;;;;;;;;;5131168;28;20200;-82
2022/01/31 07:59:20;;;;;;;19.10;3.50;;;;;;;;;;5114307;28;20229;-82
2022/01/31 08:01:47;;;;;;;15.20;3.03;;;;;;;;;;5124130;28;20284;-82
2022/01/31 08:04:16;;;;;;;14.50;2.67;;;;;;;;;;5124402;28;20234;-82
2022/01/31 08:06:43;;;;;;;13.70;2.90;;;;;;;;;;5112088;28;20225;-82
2022/01/31 08:09:10;;;;;;;15.03;3.37;;;;;;;;;;5125695;28;20624;-82
2022/01/31 08:11:38;;;;;;;17.30;5.03;;;;;;;;;;5113437;28;20629;-82
2022/01/31 08:14:10;;;;;;;16.47;3.83;;;;;;;;;;5132438;27;20200;-82
2022/01/31 08:16:38;;;;;;;16.17;4.17;;;;;;;;;;5136399;27;20683;-83
2022/01/31 08:19:07;;;;;;;12.17;2.97;;;;;;;;;;5129979;27;20247;-82
2022/01/31 08:21:36;;;;;;;16.73;3.43;;;;;;;;;;5119790;27;20193;-82
2022/01/31 08:24:04;;;;;;;14.20;3.23;;;;;;;;;;5135490;27;20201;-82
2022/01/31 08:26:31;;;;;;;12.53;3.13;;;;;;;;;;5126543;27;20263;-82
2022/01/31 08:29:02;;;;;;;17.90;3.37;;;;;;;;;;5115391;28;20285;-82
2022/01/31 08:31:33;;;;;;;10.27;2.43;;;;;;;;;;5115630;28;20202;-82
2022/01/31 08:34:17;;;;;;;14.23;2.37;;;;;;;;;;5114986;28;20225;-82
2022/01/31 08:36:46;;;;;;;12.07;1.90;;;;;;;;;;5129385;27;20219;-82
2022/01/31 08:39:17;;;;;;;13.43;2.80;;;;;;;;;;5132818;27;20241;-82
2022/01/31 08:41:45;;;;;;;11.77;2.40;;;;;;;;;;5115194;28;20280;-82
2022/01/31 08:44:13;;;;;;;12.53;2.60;;;;;;;;;;5121824;27;20200;-82
2022/01/31 08:46:41;;;;;;;9.60;1.77;;;;;;;;;;5131303;27;20238;-82
2022/01/31 08:49:09;;;;;;;15.83;2.60;;;;;;;;;;5135388;27;20247;-82
2022/01/31 08:51:36;;;;;;;9.87;2.07;;;;;;;;;;5127110;27;20230;-82
2022/01/31 08:54:06;;;;;;;13.93;2.30;;;;;;;;;;5108298;28;20272;-82
2022/01/31 08:56:35;;;;;;;12.03;2.27;;;;;;;;;;5094653;28;20205;-82
2022/01/31 08:59:04;;;;;;;11.03;2.03;;;;;;;;;;5094964;28;20230;-82
2022/01/31 09:01:31;;;;;;;14.83;2.17;;;;;;;;;;5094742;28;20562;-84
2022/01/31 09:04:04;;;;;;;12.17;2.30;;;;;;;;;;5094971;28;20229;-84
2022/01/31 09:06:32;;;;;;;12.73;2.60;;;;;;;;;;5103065;28;20634;-84
2022/01/31 09:09:00;;;;;;;14.50;2.77;;;;;;;;;;5105390;28;20253;-84
2022/01/31 09:11:30;;;;;;;9.93;2.10;;;;;;;;;;5112264;28;20194;-84
2022/01/31 09:13:58;;;;;;;8.53;1.97;;;;;;;;;;5083398;28;20297;-84
2022/01/31 09:16:25;;;;;;;10.43;1.93;;;;;;;;;;5108913;28;20740;-85
2022/01/31 09:18:52;;;;;;;9.80;2.00;;;;;;;;;;5115004;28;20284;-84
2022/01/31 09:21:20;;;;;;;12.50;2.40;;;;;;;;;;5100281;28;20199;-84
2022/01/31 09:23:51;;;;;;;10.03;1.93;;;;;;;;;;5106098;28;20218;-83
2022/01/31 09:26:21;;;;;;;13.60;2.10;;;;;;;;;;5101499;28;20281;-84
2022/01/31 09:28:50;;;;;;;12.60;2.17;;;;;;;;;;5113493;28;20189;-83
2022/01/31 09:31:18;;;;;;;11.87;2.20;;;;;;;;;;5094679;28;20229;-86
2022/01/31 09:33:45;;;;;;;8.57;1.83;;;;;;;;;;5094668;28;20230;-86
2022/01/31 09:36:12;;;;;;;11.20;2.30;;;;;;;;;;5095025;28;20211;-86
2022/01/31 09:38:40;;;;;;;10.83;2.13;;;;;;;;;;5100813;28;20197;-86
2022/01/31 09:41:10;;;;;;;10.30;2.20;;;;;;;;;;5113734;28;20213;-86
2022/01/31 09:43:57;;;;;;;13.30;2.07;;;;;;;;;;5097497;28;20223;-86
2022/01/31 09:49:20;;;;;;;16.33;2.43;;;;;;;;;;5073904;28;20566;-86
2022/01/31 09:51:48;;;;;;;13.13;2.50;;;;;;;;;;5085529;28;20205;-85
2022/01/31 09:54:15;;;;;;;12.90;2.50;;;;;;;;;;5117201;27;20274;-85
2022/01/31 09:56:46;;;;;;;10.17;2.20;;;;;;;;;;5133666;27;20209;-85
2022/01/31 09:59:14;;;;;;;11.00;2.80;;;;;;;;;;5127421;27;20715;-85
2022/01/31 10:01:46;;;;;;;13.73;2.70;;;;;;;;;;5118308;27;20292;-85
2022/01/31 10:04:17;;;;;;;12.03;2.30;;;;;;;;;;5113723;28;20193;-84
2022/01/31 10:06:45;;;;;;;11.90;2.63;;;;;;;;;;5113020;28;20194;-85
2022/01/31 10:09:14;;;;;;;12.20;2.47;;;;;;;;;;5118852;27;20239;-84
2022/01/31 10:11:46;;;;;;;12.60;2.40;;;;;;;;;;5114153;27;20277;-85
2022/01/31 10:17:24;;;;;;;9.27;2.20;;;;;;;;;;5125346;27;20250;-85
2022/01/31 10:19:53;;;;;;;13.27;2.20;;;;;;;;;;5121340;27;20215;-85
2022/01/31 10:22:21;;;;;;;13.80;2.30;;;;;;;;;;5133288;27;20219;-84
2022/01/31 10:24:49;;;;;;;11.40;2.17;;;;;;;;;;5133331;27;20760;-85
2022/01/31 10:27:17;;;;;;;13.97;2.53;;;;;;;;;;5131867;27;20723;-85
2022/01/31 10:29:45;;;;;;;11.03;2.53;;;;;;;;;;5128399;27;20293;-85
2022/01/31 10:32:16;;;;;;;14.67;2.10;;;;;;;;;;5114751;27;20565;-85
2022/01/31 10:34:50;;;;;;;11.20;2.10;;;;;;;;;;5132872;27;20657;-85
2022/01/31 10:37:20;;;;;;;11.97;2.87;;;;;;;;;;5133498;27;20203;-84
2022/01/31 10:53:58;;;;;;;7.67;1.90;;;;;;;;;;5132554;27;20278;-85
2022/01/31 10:56:26;;;;;;;8.87;2.23;;;;;;;;;;5132163;27;20197;-85
2022/01/31 10:58:57;;;;;;;13.57;2.83;;;;;;;;;;5126935;27;20215;-85
2022/01/31 11:01:25;;;;;;;13.23;2.20;;;;;;;;;;5113237;27;20255;-85
2022/01/31 11:03:52;;;;;;;11.47;2.30;;;;;;;;;;5117457;27;20247;-84
2022/01/31 11:06:23;;;;;;;12.30;1.90;;;;;;;;;;5113666;27;20693;-85
2022/01/31 11:08:50;;;;;;;13.00;1.97;;;;;;;;;;5128497;27;20288;-85
2022/01/31 11:11:17;;;;;;;13.03;2.60;;;;;;;;;;5123590;27;20272;-85
2022/01/31 11:13:44;;;;;;;10.23;2.10;;;;;;;;;;5123064;27;20253;-81
2022/01/31 11:16:11;;;;;;;15.23;2.47;;;;;;;;;;5128908;27;20304;-83
2022/01/31 11:18:42;;;;;;;13.00;2.20;;;;;;;;;;5112039;27;20229;-83
2022/01/31 11:21:11;;;;;;;13.27;2.73;;;;;;;;;;5115033;27;20225;-84
2022/01/31 11:23:43;;;;;;;12.57;2.87;;;;;;;;;;5132776;27;20604;-84
2022/01/31 11:26:13;;;;;;;9.83;1.80;;;;;;;;;;5130649;27;20197;-83
2022/01/31 11:28:42;;;;;;;10.87;2.37;;;;;;;;;;5111446;28;20284;-84
2022/01/31 11:31:09;;;;;;;13.03;2.03;;;;;;;;;;5115877;27;20255;-83
2022/01/31 11:33:37;;;;;;;13.27;1.90;;;;;;;;;;5118205;27;20245;-84
2022/01/31 11:36:04;;;;;;;13.43;2.40;;;;;;;;;;5119650;27;20220;-83
2022/01/31 11:38:34;;;;;;;14.27;2.33;;;;;;;;;;5112300;28;20244;-83
2022/01/31 11:41:04;;;;;;;11.90;2.00;;;;;;;;;;5111931;28;20508;-84
2022/01/31 11:43:32;;;;;;;9.57;2.23;;;;;;;;;;5119904;27;20216;-83
2022/01/31 11:46:01;;;;;;;13.60;2.57;;;;;;;;;;5120456;27;20217;-83
2022/01/31 11:48:29;;;;;;;9.33;1.73;;;;;;;;;;5113356;28;20205;-83
2022/01/31 11:50:57;;;;;;;12.73;2.87;;;;;;;;;;5111628;28;20274;-83
2022/01/31 11:53:28;;;;;;;10.03;1.93;;;;;;;;;;5112053;28;20311;-85
2022/01/31 11:56:00;;;;;;;8.00;1.57;;;;;;;;;;5120548;28;20278;-86
2022/01/31 11:58:31;;;;;;;7.30;1.90;;;;;;;;;;5128966;28;20703;-84
2022/01/31 12:01:01;;;;;;;8.20;1.70;;;;;;;;;;5116319;28;20235;-85
2022/01/31 12:03:30;;;;;;;13.13;1.97;;;;;;;;;;5112457;28;20280;-84
2022/01/31 12:05:57;;;;;;;11.73;2.27;;;;;;;;;;5112599;28;20201;-84
2022/01/31 12:08:37;;;;;;;10.00;2.43;;;;;;;;;;5125668;28;20290;-84
2022/01/31 12:11:09;;;;;;;10.20;1.90;;;;;;;;;;5128331;28;20205;-84
2022/01/31 12:13:42;;;;;;;8.87;2.10;;;;;;;;;;5115130;28;20213;-84
2022/01/31 12:16:23;;;;;;;13.13;2.40;;;;;;;;;;5123519;28;20334;-85
2022/01/31 12:19:01;;;;;;;10.80;2.13;;;;;;;;;;5111788;28;20206;-85
2022/01/31 12:24:30;;;;;;;8.80;1.90;;;;;;;;;;5104782;28;20248;-84
2022/01/31 12:27:05;;;;;;;14.93;7.20;;;;;;;;;;5111230;28;20668;-83
2022/01/31 12:29:35;;;;;;;11.97;2.10;;;;;;;;;;5110150;28;20288;-84
2022/01/31 12:32:12;;;;;;;6.93;1.80;;;;;;;;;;5119011;28;20208;-85
2022/01/31 12:34:40;;;;;;;5.63;1.57;;;;;;;;;;5097643;28;20225;-85
2022/01/31 12:37:26;;;;;;;8.73;2.40;;;;;;;;;;5092730;28;20268;-85
2022/01/31 12:40:00;;;;;;;8.83;2.07;;;;;;;;;;5112779;28;20258;-85
2022/01/31 12:42:44;;;;;;;9.07;1.60;;;;;;;;;;5106106;28;20213;-85
2022/01/31 12:45:14;;;;;;;7.50;2.60;;;;;;;;;;5095619;28;20202;-85
2022/01/31 12:47:56;;;;;;;10.17;3.07;;;;;;;;;;5110810;28;20222;-85
2022/01/31 12:50:25;;;;;;;9.50;2.10;;;;;;;;;;5110391;28;20288;-85
2022/01/31 12:52:53;;;;;;;9.80;2.10;;;;;;;;;;5110901;28;20198;-86
2022/01/31 12:55:22;;;;;;;9.47;1.33;;;;;;;;;;5094269;28;20338;-85
2022/01/31 12:57:49;;;;;;;5.03;1.57;;;;;;;;;;5092986;28;20289;-84
2022/01/31 13:00:32;;;;;;;9.10;1.77;;;;;;;;;;5099194;28;20205;-85
2022/01/31 13:02:59;;;;;;;9.77;2.03;;;;;;;;;;5095355;28;20233;-85
2022/01/31 13:05:32;;;;;;;7.43;1.33;;;;;;;;;;5095077;28;20285;-84
2022/01/31 13:07:59;;;;;;;8.30;1.80;;;;;;;;;;5103975;28;20738;-84
2022/01/31 13:10:26;;;;;;;8.17;1.60;;;;;;;;;;5115119;28;20205;-85
2022/01/31 13:13:00;;;;;;;8.23;1.50;;;;;;;;;;5115255;28;20230;-85
2022/01/31 13:15:29;;;;;;;9.63;2.00;;;;;;;;;;5115612;28;20283;-85
2022/01/31 13:18:03;;;;;;;8.13;1.63;;;;;;;;;;5114924;28;20630;-84
2022/01/31 13:20:31;;;;;;;11.20;2.00;;;;;;;;;;5108616;28;20202;-85
2022/01/31 13:22:58;;;;;;;5.33;1.90;;;;;;;;;;5112174;28;20206;-85
2022/01/31 13:25:25;;;;;;;9.00;1.50;;;;;;;;;;5095689;28;20679;-86
2022/01/31 13:27:53;;;;;;;11.67;1.40;;;;;;;;;;5107274;28;20236;-86
2022/01/31 13:30:21;;;;;;;12.10;1.60;;;;;;;;;;5107016;28;20559;-85
2022/01/31 13:32:50;;;;;;;9.47;2.00;;;;;;;;;;5094800;28;20225;-85
2022/01/31 13:35:18;;;;;;;11.47;1.90;;;;;;;;;;5102782;28;20323;-85
2022/01/31 13:37:47;;;;;;;9.67;2.27;;;;;;;;;;5108509;28;20224;-85
2022/01/31 13:40:16;;;;;;;10.57;2.10;;;;;;;;;;5094689;28;20198;-85
2022/01/31 13:42:44;;;;;;;7.37;2.00;;;;;;;;;;5094825;28;20261;-85
2022/01/31 13:45:14;;;;;;;7.00;1.80;;;;;;;;;;5093879;28;20210;-85
2022/01/31 13:47:47;;;;;;;12.17;1.83;;;;;;;;;;5094719;28;20605;-86
2022/01/31 13:50:21;;;;;;;9.47;1.63;;;;;;;;;;5108231;28;20586;-85
2022/01/31 13:52:55;;;;;;;9.00;1.70;;;;;;;;;;5098074;28;20661;-85
2022/01/31 13:55:23;;;;;;;7.20;1.60;;;;;;;;;;5123979;27;20301;-85
2022/01/31 13:57:51;;;;;;;10.33;1.77;;;;;;;;;;5126916;27;20235;-86
2022/01/31 14:00:19;;;;;;;8.33;1.43;;;;;;;;;;5127051;27;20236;-85
2022/01/31 14:03:04;;;;;;;8.70;1.73;;;;;;;;;;5114574;28;20304;-85
2022/01/31 14:05:35;;;;;;;8.13;1.90;;;;;;;;;;5114528;28;20229;-85
2022/01/31 14:08:03;;;;;;;7.87;1.63;;;;;;;;;;5120372;27;20317;-87
2022/01/31 14:10:31;;;;;;;11.03;1.90;;;;;;;;;;5121891;27;20284;-86
2022/01/31 14:12:59;;;;;;;8.98;1.95;;;;;;;;;;5123007;27;20461;-87
2022/01/31 14:15:26;;;;;;;10.33;1.80;;;;;;;;;;5123413;27;20307;-86
2022/01/31 14:17:54;;;;;;;8.93;1.63;;;;;;;;;;5126545;27;20668;-85
2022/01/31 14:20:22;;;;;;;7.67;1.73;;;;;;;;;;5134056;27;20292;-86
2022/01/31 14:23:00;;;;;;;11.23;1.87;;;;;;;;;;5134633;27;20197;-85
2022/01/31 14:25:27;;;;;;;5.53;1.50;;;;;;;;;;5123761;27;20192;-85
2022/01/31 14:27:55;;;;;;;6.03;1.43;;;;;;;;;;5131765;27;20224;-86
2022/01/31 14:30:23;;;;;;;10.07;1.70;;;;;;;;;;5125849;27;20280;-85
2022/01/31 14:33:04;;;;;;;10.37;1.83;;;;;;;;;;5121738;27;20282;-85
2022/01/31 14:35:32;;;;;;;7.60;1.57;;;;;;;;;;5131857;27;20252;-84
2022/01/31 14:38:10;;;;;;;9.63;1.70;;;;;;;;;;5135275;27;20274;-85
2022/01/31 14:41:08;;;;;;;12.03;1.83;;;;;;;;;;5119798;27;20227;-85
2022/01/31 14:49:06;;;;;;;7.47;1.57;;;;;;;;;;5062756;28;20331;-85
2022/01/31 14:51:35;;;;;;;6.63;1.70;;;;;;;;;;5069626;28;20289;-85
2022/01/31 14:54:05;;;;;;;8.30;1.73;;;;;;;;;;5058016;28;20318;-85
2022/01/31 14:56:32;;;;;;;6.60;1.30;;;;;;;;;;5065232;28;20210;-84
2022/01/31 14:59:00;;;;;;;6.57;1.73;;;;;;;;;;5068808;28;20283;-85
2022/01/31 15:01:28;;;;;;;9.00;1.63;;;;;;;;;;5063934;28;20835;-85
2022/01/31 15:03:55;;;;;;;7.87;1.60;;;;;;;;;;5062878;28;20662;-84
2022/01/31 15:06:23;;;;;;;11.07;2.33;;;;;;;;;;5070250;28;20692;-85
2022/01/31 15:08:50;;;;;;;8.43;1.87;;;;;;;;;;5068726;28;20277;-84
2022/01/31 15:11:19;;;;;;;10.70;1.77;;;;;;;;;;5068674;28;20645;-84